Time;durP1;ratioP1;P1;durP2;ratioP2;P2;SDS_P1;SDS_P2;PMS_P1;PMS_P2;Temp;Humidity;BMP_temperature;BMP_pressure;BME280_temperature;BME280_humidity;BME280_pressure;Samples;Min_cycle;Max_cycle;Signal;HPM_P1;HPM_P2
2023/10/31 07:01:26;;;;;;;0.50;0.50;;;10.70;99.90;14.00;99810.00;;;;6077196;22;3105797;-71
2023/10/31 07:04:22;;;;;;;1.03;1.03;;;10.80;99.90;14.10;99819.00;;;;6195336;23;20165;-71
2023/10/31 07:07:06;;;;;;;0.57;0.57;;;10.80;99.90;14.40;99805.00;;;;6221072;23;20139;-72
2023/10/31 07:09:57;;;;;;;0.80;0.80;;;11.10;99.90;14.30;99807.00;;;;6221046;23;20159;-71
2023/10/31 07:13:16;;;;;;;7.97;7.20;;;11.20;99.90;13.00;99821.00;;;;6220646;23;20169;-71
2023/10/31 07:16:34;;;;;;;1.03;1.03;;;11.10;99.90;14.10;99827.00;;;;6247735;23;20154;-70
2023/10/31 07:19:35;;;;;;;0.80;0.80;;;11.00;99.90;15.10;99832.00;;;;6247730;23;20188;-71
2023/10/31 07:22:22;;;;;;;0.90;0.90;;;11.40;99.90;14.40;99832.00;;;;6220329;23;20170;-70
2023/10/31 07:25:07;;;;;;;0.60;0.60;;;11.40;99.90;14.40;99802.00;;;;6195720;23;20272;-71
2023/10/31 07:27:56;;;;;;;0.70;0.70;;;11.40;99.90;14.70;99822.00;;;;6194294;23;20158;-69
2023/10/31 07:30:47;;;;;;;1.53;1.53;;;11.50;99.90;15.10;99827.00;;;;6220284;23;20240;-71
2023/10/31 07:33:13;;;;;;;1.07;1.07;;;11.70;99.90;14.60;99832.00;;;;6220468;23;20258;-71
2023/10/31 07:35:59;;;;;;;0.60;0.60;;;11.60;99.90;15.20;99837.00;;;;6220961;23;20167;-70
2023/10/31 07:38:24;;;;;;;1.67;1.67;;;11.80;99.90;15.50;99797.00;;;;6220788;23;20510;-71
2023/10/31 07:41:01;;;;;;;1.23;1.13;;;11.90;99.90;15.60;99834.00;;;;6246922;23;20169;-71
2023/10/31 07:43:29;;;;;;;1.00;1.00;;;12.20;99.90;14.60;99818.00;;;;6220794;23;20229;-68
2023/10/31 07:45:55;;;;;;;0.60;0.60;;;11.90;99.90;15.20;99835.00;;;;6220836;23;20138;-71
2023/10/31 07:48:23;;;;;;;0.70;0.70;;;11.90;99.90;16.10;99832.00;;;;6195454;23;20185;-71
2023/10/31 07:50:49;;;;;;;2.20;1.30;;;12.30;99.90;14.40;99839.00;;;;6247282;23;20170;-71
2023/10/31 07:53:15;;;;;;;0.93;0.93;;;11.80;99.90;14.80;99845.00;;;;6195028;23;20183;-70
2023/10/31 07:56:01;;;;;;;0.70;0.70;;;11.70;99.90;15.10;99851.00;;;;6219449;23;20174;-71
2023/10/31 07:58:27;;;;;;;0.60;0.60;;;11.80;99.90;14.70;99849.00;;;;6247189;23;20199;-73
2023/10/31 08:01:13;;;;;;;1.13;1.07;;;11.70;99.90;14.90;99850.00;;;;6219807;23;20177;-73
2023/10/31 08:03:39;;;;;;;2.20;1.43;;;11.80;99.90;14.20;99845.00;;;;6198674;23;20161;-73
2023/10/31 08:06:11;;;;;;;1.20;1.20;;;11.60;99.90;14.60;99856.00;;;;6220141;23;20220;-73
2023/10/31 08:08:37;;;;;;;2.30;2.20;;;11.60;99.90;13.60;99864.00;;;;6219102;23;20145;-73
2023/10/31 08:11:03;;;;;;;3.90;3.50;;;11.40;99.90;13.10;99862.00;;;;6247175;23;20220;-73
2023/10/31 08:13:33;;;;;;;0.87;0.87;;;11.10;99.90;13.90;99868.00;;;;6220214;23;20175;-70
2023/10/31 08:16:01;;;;;;;0.93;0.93;;;11.10;99.90;14.70;99872.00;;;;6220097;23;20169;-72
2023/10/31 08:18:27;;;;;;;0.60;0.60;;;11.40;99.90;14.90;99877.00;;;;6220116;23;20142;-73
2023/10/31 08:20:53;;;;;;;1.80;1.70;;;11.70;99.90;14.50;99875.00;;;;6246986;23;20226;-73
2023/10/31 08:23:19;;;;;;;1.10;1.10;;;11.60;99.90;14.90;99879.00;;;;6219789;23;20181;-70
2023/10/31 08:26:19;;;;;;;1.33;1.33;;;11.80;99.90;15.00;99877.00;;;;6246745;23;20148;-73
2023/10/31 08:28:45;;;;;;;2.50;1.63;;;12.00;99.90;14.50;99877.00;;;;6220268;23;20596;-73
2023/10/31 08:31:11;;;;;;;1.23;1.23;;;12.00;99.90;15.70;99841.00;;;;6219653;23;20157;-73
2023/10/31 08:34:00;;;;;;;1.37;1.27;;;12.30;99.90;14.20;99876.00;;;;6246958;23;20538;-73
2023/10/31 08:37:09;;;;;;;0.63;0.63;;;11.80;99.90;14.90;99880.00;;;;6246749;23;20173;-73
2023/10/31 08:39:35;;;;;;;0.50;0.50;;;11.80;99.90;14.80;99884.00;;;;6219723;23;20144;-73
2023/10/31 08:42:09;;;;;;;1.00;1.00;;;11.90;99.90;15.00;99885.00;;;;6246997;23;20633;-73
2023/10/31 08:44:42;;;;;;;1.47;1.33;;;12.00;99.90;16.00;99887.00;;;;6194905;23;20152;-71
2023/10/31 08:47:08;;;;;;;7.40;3.27;;;12.30;99.90;16.60;99894.00;;;;6219938;23;20142;-72
2023/10/31 08:49:41;;;;;;;7.73;6.60;;;12.70;99.90;14.90;99901.00;;;;6246622;23;20152;-72
2023/10/31 08:52:26;;;;;;;4.37;2.27;;;12.40;99.90;14.60;99857.00;;;;6246564;23;20181;-74
2023/10/31 08:55:30;;;;;;;2.33;2.23;;;12.30;99.90;15.80;99896.00;;;;6219615;23;20149;-73
2023/10/31 08:57:59;;;;;;;0.60;0.60;;;12.60;99.90;16.40;99896.00;;;;6218782;23;20159;-74
2023/10/31 09:00:30;;;;;;;1.60;1.33;;;12.90;99.90;16.20;99865.00;;;;6218028;23;20179;-74
2023/10/31 09:02:59;;;;;;;3.47;2.97;;;13.00;99.90;14.40;99893.00;;;;6245096;23;20146;-73
2023/10/31 09:05:56;;;;;;;1.90;1.80;;;12.50;99.90;14.90;99894.00;;;;6194879;23;20733;-73
2023/10/31 09:09:17;;;;;;;1.10;1.10;;;12.50;99.90;15.60;99903.00;;;;6219902;23;20156;-73
2023/10/31 09:12:31;;;;;;;1.47;1.37;;;12.60;99.90;15.30;99906.00;;;;6223057;23;20223;-73
2023/10/31 09:15:09;;;;;;;7.30;3.93;;;12.60;99.90;15.10;99904.00;;;;6194742;23;20163;-73
2023/10/31 09:18:13;;;;;;;0.63;0.63;;;12.50;99.90;15.40;99907.00;;;;6246437;23;20142;-69
2023/10/31 09:21:23;;;;;;;0.80;0.80;;;12.60;99.90;15.20;99907.00;;;;6218547;23;20184;-71
2023/10/31 09:24:23;;;;;;;1.80;1.37;;;12.30;99.90;15.60;99922.00;;;;6220176;23;20634;-71
2023/10/31 09:27:14;;;;;;;1.67;1.57;;;12.40;99.90;15.80;99933.00;;;;6221238;23;20168;-72
2023/10/31 09:29:55;;;;;;;1.27;1.27;;;12.70;99.90;15.10;99935.00;;;;6218478;23;20245;-73
2023/10/31 09:35:57;;;;;;;1.10;1.10;;;12.80;99.90;15.80;99892.00;;;;6246014;23;20165;-71
2023/10/31 09:38:54;;;;;;;0.80;0.80;;;12.80;99.90;14.70;99930.00;;;;6226321;23;20587;-69
2023/10/31 09:41:32;;;;;;;0.53;0.53;;;12.50;99.90;15.50;99936.00;;;;6245956;22;20185;-70
2023/10/31 09:44:01;;;;;;;1.87;1.77;;;12.70;99.90;15.40;99948.00;;;;6196229;23;20494;-70
2023/10/31 09:46:53;;;;;;;1.07;1.07;;;12.70;99.90;15.70;99950.00;;;;6218098;23;20168;-71
2023/10/31 09:49:20;;;;;;;1.80;1.80;;;12.80;99.90;15.90;99961.00;;;;6218473;23;20209;-74
2023/10/31 09:51:48;;;;;;;2.10;2.00;;;12.90;99.90;15.80;99959.00;;;;6193817;23;20169;-70
2023/10/31 09:54:26;;;;;;;8.60;4.17;;;12.90;99.90;15.00;99965.00;;;;6244753;23;20146;-72
2023/10/31 09:57:07;;;;;;;0.70;0.70;;;13.00;99.90;14.50;99957.00;;;;6218686;23;20213;-71
2023/10/31 09:59:33;;;;;;;0.50;0.50;;;12.40;99.90;14.20;99935.00;;;;6222050;23;20442;-69
2023/10/31 10:02:01;;;;;;;0.43;0.43;;;12.00;99.90;15.50;99945.00;;;;6218654;23;20150;-72
2023/10/31 10:04:42;;;;;;;0.57;0.57;;;12.40;99.90;16.20;99949.00;;;;6219213;23;20161;-71
2023/10/31 10:07:18;;;;;;;2.70;2.50;;;12.80;99.90;15.20;99962.00;;;;6245734;23;20149;-71
2023/10/31 10:10:19;;;;;;;6.97;6.57;;;12.90;99.90;15.90;99962.00;;;;6218247;23;20246;-71
2023/10/31 10:13:21;;;;;;;0.50;0.50;;;13.00;99.90;17.30;99971.00;;;;6219056;23;20175;-71
2023/10/31 10:16:30;;;;;;;0.60;0.60;;;13.40;99.90;16.20;99974.00;;;;6219480;23;20156;-71
2023/10/31 10:19:30;;;;;;;0.47;0.47;;;13.60;99.90;16.30;99972.00;;;;6219266;23;20138;-70
2023/10/31 10:33:55;;;;;;;0.63;0.50;;;12.10;99.90;14.90;100025.00;;;;5069993;28;20615;-69
2023/10/31 10:36:52;;;;;;;1.67;1.30;;;12.40;99.90;14.60;100010.00;;;;5039671;28;20679;-69
2023/10/31 10:39:36;;;;;;;3.77;1.70;;;12.40;99.90;14.40;99999.00;;;;5044814;28;20220;-69
2023/10/31 10:42:35;;;;;;;1.80;1.70;;;12.30;99.90;14.80;99994.00;;;;5032636;28;20198;-69
2023/10/31 10:45:34;;;;;;;0.53;0.53;;;12.40;99.90;14.80;99997.00;;;;5045248;28;20240;-69
2023/10/31 10:48:21;;;;;;;1.43;1.33;;;12.40;99.90;14.10;100004.00;;;;5036582;28;20195;-69
2023/10/31 10:51:27;;;;;;;1.50;1.20;;;12.20;99.90;14.30;100002.00;;;;5043724;28;20183;-69
2023/10/31 10:54:41;;;;;;;2.93;2.60;;;12.20;99.90;14.10;100007.00;;;;5047480;28;20213;-69
2023/10/31 10:57:40;;;;;;;1.53;1.33;;;12.00;99.90;14.50;100008.00;;;;5047281;28;20639;-69
2023/10/31 11:00:55;;;;;;;0.60;0.60;;;12.00;99.90;14.50;100009.00;;;;5032640;28;20192;-69
2023/10/31 11:03:45;;;;;;;1.43;0.90;;;12.10;99.90;14.60;100007.00;;;;5032294;28;20197;-69
2023/10/31 11:06:34;;;;;;;1.67;1.23;;;12.20;99.90;14.90;99970.00;;;;5038974;28;20205;-70
2023/10/31 11:09:30;;;;;;;3.50;1.13;;;12.20;99.90;14.50;99997.00;;;;5047829;28;20541;-70
2023/10/31 11:12:42;;;;;;;0.40;0.40;;;12.20;99.90;14.80;100003.00;;;;5048200;28;20202;-71
2023/10/31 11:15:50;;;;;;;0.80;0.80;;;12.30;99.90;15.40;100002.00;;;;5046999;28;20280;-68
2023/10/31 11:19:05;;;;;;;0.60;0.60;;;12.40;99.90;15.20;100002.00;;;;5036341;28;20188;-68
2023/10/31 11:22:04;;;;;;;0.63;0.63;;;12.50;99.90;15.00;100008.00;;;;5050179;28;20213;-68
2023/10/31 11:24:54;;;;;;;1.30;1.20;;;12.50;99.90;14.20;99988.00;;;;5070673;28;20181;-68
2023/10/31 11:27:57;;;;;;;0.30;0.30;;;12.20;99.90;15.10;100003.00;;;;5032134;28;20228;-69
2023/10/31 11:30:31;;;;;;;0.30;0.30;;;12.20;99.90;14.90;100003.00;;;;5068581;28;20543;-68
2023/10/31 11:33:02;;;;;;;0.80;0.80;;;12.20;99.90;15.90;99968.00;;;;5031035;28;20221;-67
2023/10/31 11:35:39;;;;;;;3.80;0.87;;;12.60;99.90;15.20;100011.00;;;;5028531;28;20195;-67
2023/10/31 11:38:34;;;;;;;0.40;0.40;;;12.60;99.90;16.30;100016.00;;;;5078338;28;20184;-67
2023/10/31 11:41:44;;;;;;;1.47;1.37;;;12.80;99.90;16.30;100022.00;;;;5047044;28;20212;-67
2023/10/31 11:44:15;;;;;;;0.43;0.43;;;13.10;99.90;15.90;100017.00;;;;5037951;28;20194;-67
2023/10/31 11:46:41;;;;;;;0.97;0.97;;;13.00;99.90;15.10;100006.00;;;;5034249;28;20187;-67
2023/10/31 11:49:09;;;;;;;2.33;2.13;;;12.70;99.90;14.70;99997.00;;;;5035815;28;20189;-67
2023/10/31 11:51:35;;;;;;;0.50;0.50;;;12.50;99.90;14.50;100003.00;;;;5014385;28;20655;-67
2023/10/31 11:54:07;;;;;;;0.70;0.70;;;12.20;99.90;14.60;99983.00;;;;5022077;28;20532;-67
2023/10/31 11:56:53;;;;;;;0.30;0.30;;;12.20;99.90;14.40;100002.00;;;;5015264;28;20187;-67
2023/10/31 11:59:19;;;;;;;0.93;0.53;;;11.90;99.90;14.30;99975.00;;;;5029024;28;20279;-67
2023/10/31 12:01:57;;;;;;;0.60;0.60;;;11.90;99.90;15.00;99999.00;;;;5035216;28;20197;-67
2023/10/31 12:04:26;;;;;;;0.77;0.77;;;12.00;99.90;15.40;100008.00;;;;5036054;28;20196;-67
2023/10/31 12:07:01;;;;;;;1.50;1.40;;;12.30;99.90;15.00;99997.00;;;;5034282;28;20190;-67
2023/10/31 12:09:29;;;;;;;1.43;1.20;;;12.30;99.90;14.20;100008.00;;;;5040792;28;20194;-67
2023/10/31 12:11:58;;;;;;;1.27;1.27;;;12.00;99.90;14.50;100006.00;;;;5049336;28;20704;-67
2023/10/31 12:14:24;;;;;;;0.67;0.67;;;12.00;99.90;14.80;100001.00;;;;5034044;28;20189;-67
2023/10/31 12:16:50;;;;;;;0.40;0.40;;;12.10;99.90;14.50;99963.00;;;;5034766;28;20256;-67
2023/10/31 12:19:21;;;;;;;9.93;1.27;;;12.00;99.90;14.40;100006.00;;;;5033791;28;20191;-67
2023/10/31 12:21:51;;;;;;;0.67;0.67;;;11.90;99.90;14.70;100008.00;;;;5014703;28;20629;-68
2023/10/31 12:24:40;;;;;;;0.60;0.60;;;11.90;99.90;15.00;99954.00;;;;5024811;28;20178;-68
2023/10/31 12:27:16;;;;;;;1.30;1.23;;;12.10;99.90;14.80;100000.00;;;;5031049;28;20191;-68
2023/10/31 12:29:44;;;;;;;0.83;0.83;;;12.00;99.90;14.60;100004.00;;;;5032100;28;20189;-68
2023/10/31 12:32:20;;;;;;;3.03;2.80;;;11.90;99.90;15.00;99976.00;;;;5030611;28;20292;-68
2023/10/31 12:34:47;;;;;;;2.17;2.10;;;11.90;99.90;14.60;99968.00;;;;5030826;28;20190;-68
2023/10/31 12:37:14;;;;;;;1.50;1.40;;;11.90;99.90;14.90;99997.00;;;;5033334;28;20656;-67
2023/10/31 12:39:40;;;;;;;7.93;1.93;;;12.00;99.90;14.70;99997.00;;;;5033360;28;20190;-68
2023/10/31 12:42:09;;;;;;;0.80;0.80;;;11.90;99.90;14.50;100014.00;;;;5016903;28;20781;-68
2023/10/31 12:44:47;;;;;;;1.00;1.00;;;11.90;99.90;14.30;100013.00;;;;5033280;28;20189;-67
2023/10/31 12:48:01;;;;;;;0.90;0.90;;;11.80;99.90;14.50;100016.00;;;;5033431;28;20189;-67
2023/10/31 12:50:27;;;;;;;2.77;2.57;;;11.90;99.90;14.50;100021.00;;;;5027464;28;20556;-67
2023/10/31 12:53:23;;;;;;;2.77;2.60;;;12.00;99.90;14.60;99988.00;;;;5033233;28;20208;-68
2023/10/31 12:55:52;;;;;;;1.10;1.10;;;12.10;99.90;14.90;100018.00;;;;5032218;28;20185;-68
2023/10/31 12:58:21;;;;;;;0.90;0.90;;;12.10;99.90;14.30;99997.00;;;;5016165;28;20188;-67
2023/10/31 13:00:49;;;;;;;0.90;0.90;;;12.00;99.90;14.70;100035.00;;;;5049991;28;20204;-68
2023/10/31 13:03:15;;;;;;;0.80;0.80;;;12.10;99.90;14.90;100036.00;;;;5032636;28;20198;-67
2023/10/31 13:05:41;;;;;;;2.20;2.00;;;12.10;99.90;14.90;100032.00;;;;5033278;28;20183;-67
2023/10/31 13:08:39;;;;;;;1.17;1.17;;;12.30;99.90;15.00;100023.00;;;;5033318;28;20196;-68
2023/10/31 13:11:09;;;;;;;0.70;0.70;;;12.40;99.90;15.00;100036.00;;;;5058126;28;20648;-67
2023/10/31 13:13:35;;;;;;;1.47;1.47;;;12.30;99.90;14.50;100036.00;;;;5032607;28;20654;-67
2023/10/31 13:16:06;;;;;;;1.73;1.63;;;12.10;99.90;14.30;100038.00;;;;5032911;28;20187;-68
2023/10/31 13:18:32;;;;;;;2.93;2.73;;;12.10;99.90;14.60;100048.00;;;;5028593;28;20238;-68
2023/10/31 13:20:58;;;;;;;1.07;1.07;;;12.10;99.90;15.10;100040.00;;;;5034230;28;20640;-68
2023/10/31 13:23:24;;;;;;;1.47;1.27;;;12.20;99.90;14.40;100049.00;;;;5014999;28;20205;-67
2023/10/31 13:25:50;;;;;;;0.80;0.80;;;12.10;99.90;14.60;100056.00;;;;5016332;28;20747;-67
2023/10/31 13:28:16;;;;;;;1.53;1.53;;;12.10;99.90;15.00;100025.00;;;;5015997;28;20189;-68
2023/10/31 13:30:43;;;;;;;0.80;0.80;;;12.20;99.90;15.70;100024.00;;;;5032357;28;20599;-67
2023/10/31 13:33:09;;;;;;;3.40;1.90;;;12.50;99.90;15.00;100017.00;;;;5032472;28;20255;-67
2023/10/31 13:35:39;;;;;;;1.53;1.50;;;12.40;99.90;14.60;100062.00;;;;5032324;28;20189;-67
2023/10/31 13:38:05;;;;;;;1.20;1.20;;;12.30;99.90;15.30;100054.00;;;;5032008;28;20236;-67
2023/10/31 13:40:31;;;;;;;0.70;0.70;;;12.50;99.90;15.50;100008.00;;;;5033339;28;20190;-67
2023/10/31 13:42:57;;;;;;;0.90;0.90;;;12.50;99.90;15.10;100005.00;;;;5033413;28;20187;-67
2023/10/31 13:45:23;;;;;;;1.50;1.50;;;12.80;99.90;15.20;100051.00;;;;5032190;28;20191;-67
2023/10/31 13:47:49;;;;;;;0.60;0.60;;;12.70;99.90;15.30;99999.00;;;;5032656;28;20186;-67
2023/10/31 13:50:15;;;;;;;0.80;0.80;;;12.60;99.90;15.60;100048.00;;;;5045765;28;20191;-67
2023/10/31 13:52:42;;;;;;;0.70;0.70;;;12.80;99.90;15.90;100046.00;;;;5044659;28;20209;-67
2023/10/31 13:55:08;;;;;;;0.80;0.80;;;12.90;99.90;16.40;100047.00;;;;5032060;28;20178;-67
2023/10/31 13:57:34;;;;;;;0.90;0.90;;;13.20;99.90;16.40;100040.00;;;;5032715;28;20226;-68
2023/10/31 14:00:00;;;;;;;1.40;1.40;;;13.40;99.90;15.90;100023.00;;;;5031337;28;20212;-67
2023/10/31 14:02:28;;;;;;;1.40;1.40;;;13.30;99.90;16.30;100033.00;;;;5031847;28;20207;-67
2023/10/31 14:04:54;;;;;;;2.00;1.90;;;13.50;99.90;16.70;100032.00;;;;5030042;28;20271;-67
2023/10/31 14:07:42;;;;;;;1.23;1.23;;;13.70;99.90;15.80;100043.00;;;;5015313;28;20192;-67
2023/10/31 14:10:08;;;;;;;0.93;0.93;;;13.60;99.90;17.10;100037.00;;;;5047486;28;20185;-67
2023/10/31 14:12:34;;;;;;;1.00;1.00;;;13.90;99.90;16.70;99998.00;;;;5031353;28;20698;-67
2023/10/31 14:15:05;;;;;;;1.00;1.00;;;13.90;99.90;16.60;100035.00;;;;5032142;28;20180;-67
2023/10/31 14:17:32;;;;;;;3.10;1.50;;;13.80;99.90;15.80;100031.00;;;;5032857;28;20322;-68
2023/10/31 14:19:58;;;;;;;0.87;0.87;;;13.60;99.90;15.60;100034.00;;;;5015538;28;20208;-68
2023/10/31 14:22:24;;;;;;;1.23;1.23;;;13.40;99.90;16.30;100046.00;;;;5032049;28;20262;-67
2023/10/31 14:24:51;;;;;;;0.60;0.60;;;13.50;99.90;16.00;100024.00;;;;5031197;28;20177;-67
2023/10/31 14:27:22;;;;;;;0.80;0.80;;;13.40;99.90;17.00;100028.00;;;;5032992;28;20560;-67
2023/10/31 14:29:48;;;;;;;0.80;0.80;;;13.60;99.90;16.90;100037.00;;;;5031252;28;20719;-67
2023/10/31 14:32:39;;;;;;;1.07;1.07;;;13.80;99.90;16.50;100046.00;;;;5032192;28;20303;-67
2023/10/31 14:35:43;;;;;;;0.80;0.80;;;13.60;99.90;17.00;100039.00;;;;5031081;28;20193;-67
2023/10/31 14:38:27;;;;;;;0.83;0.83;;;13.80;99.90;16.30;100037.00;;;;5012022;28;20188;-67
2023/10/31 14:41:28;;;;;;;0.70;0.70;;;13.80;99.90;16.20;99977.00;;;;5031353;28;20176;-67
2023/10/31 14:44:18;;;;;;;0.70;0.70;;;13.60;99.90;16.90;100033.00;;;;5023931;28;20191;-66
2023/10/31 14:47:22;;;;;;;0.90;0.90;;;13.60;99.90;17.10;100036.00;;;;5031348;28;20204;-67
2023/10/31 14:50:28;;;;;;;0.90;0.90;;;14.00;99.90;16.00;100017.00;;;;5019781;28;20262;-67
2023/10/31 14:53:20;;;;;;;0.70;0.70;;;13.70;99.90;16.00;100008.00;;;;5030318;28;20522;-67
2023/10/31 14:55:52;;;;;;;0.80;0.80;;;13.40;99.90;16.60;100033.00;;;;5031693;28;20278;-67
2023/10/31 15:01:16;;;;;;;0.70;0.70;;;13.50;99.90;16.30;100037.00;;;;5020695;28;20192;-67
2023/10/31 15:03:49;;;;;;;0.87;0.87;;;13.40;99.90;16.30;100038.00;;;;5038363;28;20516;-66
2023/10/31 15:06:36;;;;;;;1.30;1.23;;;13.40;99.90;16.80;100011.00;;;;5023895;28;20191;-66
2023/10/31 15:09:02;;;;;;;0.70;0.70;;;13.50;99.90;16.50;100037.00;;;;5039753;28;20187;-67
2023/10/31 15:11:28;;;;;;;0.80;0.80;;;13.50;99.90;16.20;100034.00;;;;5023625;28;20198;-67
2023/10/31 15:13:57;;;;;;;1.00;1.00;;;13.40;99.90;16.20;99999.00;;;;5039149;28;20180;-66
2023/10/31 15:16:23;;;;;;;0.70;0.70;;;13.40;99.90;15.70;100026.00;;;;5039178;28;20776;-67
2023/10/31 15:18:52;;;;;;;0.73;0.73;;;13.30;99.90;16.20;100021.00;;;;5043124;28;20206;-67
2023/10/31 15:21:18;;;;;;;0.67;0.67;;;13.30;99.90;16.40;100016.00;;;;5043332;28;20237;-67
2023/10/31 15:23:44;;;;;;;0.90;0.90;;;13.50;99.90;15.80;100016.00;;;;5040490;28;20192;-67
2023/10/31 15:26:38;;;;;;;0.70;0.70;;;13.30;99.90;16.20;100030.00;;;;5044870;28;20562;-67
2023/10/31 15:29:07;;;;;;;1.13;1.13;;;13.30;99.90;16.20;100028.00;;;;5045189;28;20190;-67
2023/10/31 15:31:36;;;;;;;1.17;1.17;;;13.30;99.90;16.40;100035.00;;;;5026682;28;20283;-68
2023/10/31 15:34:10;;;;;;;0.60;0.60;;;13.30;99.90;16.40;100029.00;;;;5043918;28;20264;-68
2023/10/31 15:37:14;;;;;;;0.80;0.80;;;13.40;99.90;16.50;100029.00;;;;5044645;28;20221;-69
2023/10/31 15:40:15;;;;;;;2.70;1.60;;;13.40;99.90;16.10;100046.00;;;;5027077;28;20199;-68
2023/10/31 15:43:19;;;;;;;1.10;1.00;;;13.40;99.90;16.30;100037.00;;;;5041275;28;20724;-69
2023/10/31 15:45:54;;;;;;;0.90;0.90;;;13.40;99.90;16.30;100026.00;;;;5043817;28;20197;-68
2023/10/31 15:48:46;;;;;;;0.80;0.80;;;13.30;99.90;17.10;99999.00;;;;5043956;28;20184;-71
2023/10/31 15:51:14;;;;;;;0.70;0.70;;;13.60;99.90;16.90;100037.00;;;;5043706;28;20283;-68
2023/10/31 15:54:01;;;;;;;0.90;0.90;;;13.60;99.90;16.30;100060.00;;;;5036763;28;20282;-68
2023/10/31 15:57:21;;;;;;;0.70;0.70;;;13.40;99.90;15.90;100056.00;;;;5015284;28;20200;-69
2023/10/31 15:59:49;;;;;;;2.10;1.77;;;13.40;99.90;16.10;100052.00;;;;5033587;28;20317;-67
2023/10/31 16:02:21;;;;;;;0.93;0.93;;;13.30;99.90;16.40;100067.00;;;;5032951;28;20222;-66
2023/10/31 16:04:47;;;;;;;0.70;0.70;;;13.40;99.90;16.80;100066.00;;;;5035903;28;20189;-68
2023/10/31 16:07:31;;;;;;;1.20;1.20;;;13.50;99.90;16.50;100073.00;;;;5042272;28;20215;-65
2023/10/31 16:09:57;;;;;;;1.37;1.37;;;13.50;99.90;16.60;100073.00;;;;5041953;28;20176;-69
2023/10/31 16:12:25;;;;;;;1.13;1.10;;;13.50;99.90;15.90;100055.00;;;;5042178;28;20191;-72
2023/10/31 16:14:51;;;;;;;1.53;1.20;;;13.30;99.90;16.20;100047.00;;;;5042097;28;20195;-72
2023/10/31 16:17:52;;;;;;;0.60;0.60;;;13.40;99.90;16.40;100059.00;;;;5038867;28;20190;-67
2023/10/31 16:20:46;;;;;;;0.70;0.70;;;13.40;99.90;16.30;100054.00;;;;5042138;28;20186;-68
2023/10/31 16:23:12;;;;;;;0.60;0.60;;;13.40;99.90;16.20;100066.00;;;;5022734;28;20218;-68
2023/10/31 16:25:48;;;;;;;1.00;1.00;;;13.40;99.90;15.80;100058.00;;;;5040587;28;20183;-68
2023/10/31 16:28:14;;;;;;;1.20;1.20;;;13.30;99.90;15.90;100069.00;;;;5026950;28;20213;-68
2023/10/31 16:30:45;;;;;;;1.80;1.20;;;13.20;99.90;16.50;100063.00;;;;5044829;28;20214;-68
2023/10/31 16:33:11;;;;;;;0.67;0.67;;;13.50;99.90;16.80;100053.00;;;;5043027;28;20195;-68
2023/10/31 16:35:37;;;;;;;0.90;0.90;;;13.50;99.90;16.60;100046.00;;;;5042590;28;20187;-68
2023/10/31 16:38:09;;;;;;;0.60;0.60;;;13.50;99.90;16.00;100066.00;;;;5041886;28;20668;-68
2023/10/31 16:40:37;;;;;;;0.60;0.60;;;13.30;99.90;16.30;100056.00;;;;5042319;28;20188;-68
2023/10/31 16:43:03;;;;;;;0.80;0.80;;;13.30;99.90;16.10;100067.00;;;;5040032;28;20212;-68
2023/10/31 16:45:36;;;;;;;0.60;0.60;;;13.40;99.90;16.10;100054.00;;;;5043853;28;20665;-68
2023/10/31 16:48:06;;;;;;;0.60;0.60;;;13.30;99.90;16.40;100045.00;;;;5043790;28;20210;-68
2023/10/31 16:50:32;;;;;;;1.03;1.03;;;13.30;99.90;16.00;100036.00;;;;5038129;28;20196;-68
2023/10/31 16:55:52;;;;;;;0.60;0.60;;;13.10;99.90;16.20;100064.00;;;;4998322;28;20588;-73
2023/10/31 16:58:42;;;;;;;0.50;0.50;;;13.30;99.90;16.60;100055.00;;;;4992411;28;20262;-72
2023/10/31 17:01:51;;;;;;;0.60;0.60;;;13.40;99.90;16.60;100075.00;;;;4993540;28;20809;-72
2023/10/31 17:04:58;;;;;;;1.40;0.87;;;13.50;99.90;16.00;100077.00;;;;5002473;28;20417;-72
2023/10/31 17:07:31;;;;;;;0.50;0.50;;;13.30;99.90;15.90;100081.00;;;;5003620;28;20316;-72
2023/10/31 17:10:06;;;;;;;0.60;0.60;;;13.30;99.90;16.30;100075.00;;;;5000283;28;20250;-72
2023/10/31 17:12:42;;;;;;;0.50;0.50;;;13.30;99.90;16.60;100076.00;;;;5003586;28;20207;-72
2023/10/31 17:15:11;;;;;;;0.77;0.77;;;13.50;99.90;16.60;100070.00;;;;5002117;28;20198;-72
2023/10/31 17:17:49;;;;;;;0.60;0.60;;;13.50;99.90;16.40;100085.00;;;;4992921;28;20576;-72
2023/10/31 17:20:15;;;;;;;0.90;0.90;;;13.40;99.90;16.70;100083.00;;;;5008743;28;20543;-72
2023/10/31 17:22:41;;;;;;;0.60;0.60;;;13.40;99.90;16.80;100094.00;;;;5009506;28;20652;-72
2023/10/31 17:25:28;;;;;;;0.50;0.50;;;13.50;99.90;16.60;100089.00;;;;5005901;28;20659;-72
2023/10/31 17:28:02;;;;;;;1.07;1.07;;;13.40;99.90;16.90;100097.00;;;;5015721;28;20185;-73
2023/10/31 17:30:49;;;;;;;0.60;0.60;;;13.60;99.90;16.20;100095.00;;;;5003841;28;20207;-72
2023/10/31 17:33:28;;;;;;;0.60;0.60;;;13.40;99.90;16.90;100108.00;;;;5003496;28;20187;-72
2023/10/31 17:35:56;;;;;;;0.87;0.87;;;13.50;99.90;16.40;100114.00;;;;5001527;28;20260;-72
2023/10/31 17:38:25;;;;;;;0.50;0.50;;;13.40;99.90;16.10;100099.00;;;;5003040;28;20191;-72
2023/10/31 17:40:56;;;;;;;1.30;1.30;;;13.20;99.90;15.70;100113.00;;;;5002541;28;20210;-72
2023/10/31 17:43:22;;;;;;;0.93;0.93;;;13.20;99.90;16.10;100105.00;;;;5004244;28;20235;-72
2023/10/31 17:46:12;;;;;;;6.23;5.93;;;13.20;99.90;16.20;100113.00;;;;5009074;28;20203;-72
2023/10/31 17:48:41;;;;;;;0.50;0.50;;;13.20;99.90;16.40;100115.00;;;;4990146;28;20262;-72
2023/10/31 17:51:30;;;;;;;0.97;0.97;;;13.20;99.90;16.20;100117.00;;;;4984784;28;20291;-72
2023/10/31 17:54:02;;;;;;;0.60;0.60;;;13.30;99.90;15.60;100094.00;;;;5006697;28;20306;-72
2023/10/31 17:56:53;;;;;;;0.50;0.50;;;13.00;99.90;16.30;100128.00;;;;5000747;28;20240;-72
2023/10/31 18:00:02;;;;;;;0.60;0.60;;;13.10;99.90;17.00;100137.00;;;;4999418;28;20198;-72
2023/10/31 18:03:10;;;;;;;0.70;0.70;;;13.40;99.90;16.70;100134.00;;;;4978245;28;20566;-71
2023/10/31 18:05:36;;;;;;;1.63;1.53;;;13.40;99.90;16.70;100128.00;;;;4986850;28;20702;-71
2023/10/31 18:08:05;;;;;;;1.77;1.67;;;13.50;99.90;16.50;100131.00;;;;4989215;28;20645;-71
2023/10/31 18:10:33;;;;;;;1.20;1.13;;;13.50;99.90;16.90;100095.00;;;;5002254;28;20184;-71
2023/10/31 18:13:23;;;;;;;1.80;1.73;;;13.60;99.90;17.30;100118.00;;;;5009130;28;20195;-72
2023/10/31 18:16:03;;;;;;;0.60;0.60;;;13.80;99.90;16.80;100130.00;;;;5000648;28;20550;-72
2023/10/31 18:18:32;;;;;;;0.60;0.60;;;13.80;99.90;16.70;100133.00;;;;5002633;28;20634;-72
2023/10/31 18:21:18;;;;;;;0.80;0.80;;;13.60;99.90;17.10;100137.00;;;;5007194;28;20421;-72
2023/10/31 18:26:41;;;;;;;0.73;0.73;;;13.50;99.90;16.90;100141.00;;;;5004583;28;20197;-72
2023/10/31 18:29:16;;;;;;;0.50;0.50;;;13.60;99.90;17.90;100122.00;;;;4993648;28;20184;-72
2023/10/31 18:32:13;;;;;;;0.60;0.60;;;14.00;99.90;17.30;100127.00;;;;5001998;28;20247;-69
2023/10/31 18:35:00;;;;;;;0.50;0.50;;;14.00;99.90;17.30;100150.00;;;;4959723;28;20625;-69
2023/10/31 18:37:35;;;;;;;1.53;1.03;;;14.00;99.90;16.90;100112.00;;;;4994867;28;21392;-69
2023/10/31 18:40:04;;;;;;;0.60;0.60;;;13.80;99.90;16.90;100141.00;;;;4996612;28;20544;-69
2023/10/31 18:42:59;;;;;;;0.60;0.60;;;13.70;99.90;16.40;100150.00;;;;4999209;28;20425;-69
2023/10/31 18:45:51;;;;;;;0.60;0.60;;;13.60;99.90;16.80;100129.00;;;;4973832;28;20199;-69
2023/10/31 18:48:41;;;;;;;0.77;0.77;;;13.50;99.90;15.80;100135.00;;;;4966400;28;20651;-69
2023/10/31 18:51:18;;;;;;;0.40;0.40;;;13.40;99.90;15.70;100132.00;;;;4968103;28;20273;-72
2023/10/31 18:53:49;;;;;;;0.40;0.40;;;13.20;99.90;15.70;100124.00;;;;4992697;28;20868;-72
2023/10/31 18:56:21;;;;;;;0.40;0.40;;;13.20;99.90;16.30;100132.00;;;;5011724;28;20558;-72
2023/10/31 18:59:03;;;;;;;0.53;0.53;;;13.20;99.90;16.20;100129.00;;;;5003341;28;20187;-72
2023/10/31 19:01:32;;;;;;;0.60;0.60;;;13.30;99.90;15.90;100129.00;;;;4997363;28;20187;-72
2023/10/31 19:04:04;;;;;;;0.50;0.50;;;13.20;99.90;16.30;100104.00;;;;5004790;28;20557;-72
2023/10/31 19:06:35;;;;;;;0.90;0.90;;;13.30;99.90;15.60;100135.00;;;;5012885;28;20179;-72